首页
METAR-TAF:

METAR-TAF

机场 :

Beckley, 西維吉尼亞州, 美国

纬度: 37-47-42N, 经度: 081-07-29W, 海拔: 763米

当前天气观测

该预报发布于47分钟前的03:51 UTC
风速8节,风向西转西北
温度 8°C
湿度 71%
气压 1019 hPa
能見度: 16.1公里
阴天层高于4900英尺

METAR: KBKW 170351Z AUTO 30008KT 10SM OVC049 08/03 A3009 RMK AO2 SLP188 T00830028 TSNO

时间: 00:38 (04:38 UTC)

预报

该预报发布于2小时和5分钟前的02:33 UTC
预报有效从17日的 03点(UTC)到 17日的 24点(UTC)
风速8节,风向西转西北
能見度: 10公里
多云层高于4000英尺
从 17日的 1400点(UTC)
风速11节,风向西转西北,有时为17节阵风
能見度: 10公里
少量云层高于4000英尺
从 17日的 1800点(UTC)
风速18节,风向西转西北,有时为27节阵风
能見度: 10公里
少量云层高于7000英尺

TAF: KBKW 170233Z 1703/1724 30008KT P6SM BKN040 FM171400 30011G17KT P6SM FEW040 FM171800 30018G27KT P6SM FEW070

超过4000个机场的气象观测和天气预报(METAR&TAF报告)。

可查询的气象台以黄色和红色小点在地图上表示。

将鼠标移到小点上方,可查看气象台名称。

然后点击查看天气观测和预报。

如需切换地图:点击带黑十字的绿色按钮放大地图;点击带横线的绿色按钮缩小地图;或者点击绿色箭头查看邻近地区的地图。


METAR-TAF: